< < Back
Terminal Aerodrome Forecast


Current Version              Previous Versions:   1  2  3  4  5  6  7  8  9  

Terminal Aerodrome Forecast

197
FTUS42 KMLB 031122
TAFDAB
TAF
KDAB 031122Z 0312/0412 00000KT P6SM FEW030
     FM031400 07009KT P6SM FEW040
     FM031800 07012G20KT P6SM SCT040
     FM040000 07009KT P6SM FEW040=

Latest METAR

592
SAUS80 KWBC 041100 RRA
MTRDAB
METAR KDAB 041053Z 32003KT 10SM FEW027 SCT040 BKN055 20/16 A3020 RMK AO2
SLP226 T02000161


USA.gov is the U.S. government's official web portal to all federal, state and local government web resources and services.